Accueil
METAR-TAF:

METAR-TAF

Aéroports :

Aéroport de Porto Santo

Porto Santo, Portugal

latitude: 33-04N, longitude: 016-21W, altitude: 97 m

Observation

Le bulletin a été fait il y a 1 heure et 15 minutes, à 23:30 UTC
Vent 13 kt de nord
Température 21°C
Humidité 69%
Pression 1024 hPa
Visibilité 10 km ou plus
Nuages épars à une hauteur de 1500 ft

METAR: LPPS 052330Z 36013KT 9999 SCT015 21/15 Q1024

Heure: 01:45 (00:45 UTC)

Prévision

Le bulletin a été fait il y a 1 heure et 45 minutes, à 23:00 UTC
Prévision valable du 06 à 00 UTC au 07 à 06 UTC
Vent 15 kt de nord
Visibilité 10 km ou plus
Nuages épars à une hauteur de 1500 ft

TAF: LPPS 052300Z 0600/0706 01015KT 9999 SCT015

Observations et prévisions météorologiques de plus de 4000 aéroports (messages METAR et TAF).

Les stations disponibles sont représentées par des disques jaunes et rouges sur la carte.

Passer la souris dessus pour voir le nom de la station.

Cliquer dessus pour voir les observations et prévisions météorologiques.

Pour changer de carte: cliquez sur les boutons verts avec une croix noire pour zoomer, sur le bouton vert avec un tiret pour effectuer un zoom arrière, ou sur les flèches vertes pour les cartes adjacentes.


METAR-TAF: